Time;durP1;ratioP1;P1;durP2;ratioP2;P2;SDS_P1;SDS_P2;PMS_P1;PMS_P2;Temp;Humidity;BMP_temperature;BMP_pressure;BME280_temperature;BME280_humidity;BME280_pressure;Samples;Min_cycle;Max_cycle;Signal;HPM_P1;HPM_P2
2022/01/15 00:00:19;;;;;;;;;;;7.70;99.90;;;;;;5094126;28;20256;-58
2022/01/15 00:02:44;;;;;;;;;;;7.70;99.90;;;;;;5075571;28;20310;-58
2022/01/15 00:05:10;;;;;;;;;;;7.70;99.90;;;;;;5077604;28;19920;-58
2022/01/15 00:07:36;;;;;;;;;;;7.70;99.90;;;;;;5073576;28;19913;-58
2022/01/15 00:10:02;;;;;;;;;;;7.70;99.90;;;;;;5073797;28;20491;-58
2022/01/15 00:12:34;;;;;;;;;;;7.80;99.90;;;;;;5072994;28;20367;-58
2022/01/15 00:15:00;;;;;;;;;;;7.70;99.90;;;;;;5074439;28;19913;-58
2022/01/15 00:17:44;;;;;;;;;;;7.70;99.90;;;;;;5073378;28;19919;-58
2022/01/15 00:20:10;;;;;;;;;;;7.70;99.90;;;;;;5072962;28;20363;-58
2022/01/15 00:22:35;;;;;;;;;;;7.70;99.90;;;;;;5073353;28;19939;-58
2022/01/15 00:25:01;;;;;;;;;;;7.80;99.90;;;;;;5088463;28;19955;-58
2022/01/15 00:27:26;;;;;;;;;;;7.70;99.90;;;;;;5092988;28;19908;-58
2022/01/15 00:29:52;;;;;;;;;;;7.70;99.90;;;;;;5093215;28;20418;-58
2022/01/15 00:32:17;;;;;;;;;;;7.70;99.90;;;;;;5087942;28;20379;-58
2022/01/15 00:34:43;;;;;;;;;;;7.70;99.90;;;;;;5072482;28;19908;-58
2022/01/15 00:37:08;;;;;;;;;;;7.70;99.90;;;;;;5072614;28;19912;-58
2022/01/15 00:39:33;;;;;;;;;;;7.70;99.90;;;;;;5073134;28;19908;-58
2022/01/15 00:41:59;;;;;;;;;;;7.70;99.90;;;;;;5074036;28;20463;-58
2022/01/15 00:44:25;;;;;;;;;;;7.70;99.90;;;;;;5078727;28;19912;-58
2022/01/15 00:46:50;;;;;;;;;;;7.70;99.90;;;;;;5093196;28;20371;-58
2022/01/15 00:49:16;;;;;;;;;;;7.70;99.90;;;;;;5092774;28;19916;-58
2022/01/15 00:51:41;;;;;;;;;;;7.60;99.90;;;;;;5090701;28;19930;-58
2022/01/15 00:54:07;;;;;;;;;;;7.60;99.90;;;;;;5072301;28;19913;-58
2022/01/15 00:56:32;;;;;;;;;;;7.70;99.90;;;;;;5072733;28;20011;-58
2022/01/15 00:58:58;;;;;;;;;;;7.70;99.90;;;;;;5072724;28;19915;-58
2022/01/15 01:01:23;;;;;;;;;;;7.70;99.90;;;;;;5072231;28;19935;-58
2022/01/15 01:03:49;;;;;;;;;;;7.60;99.90;;;;;;5091020;28;19928;-58
2022/01/15 01:06:15;;;;;;;;;;;7.70;99.90;;;;;;5093160;28;19915;-58
2022/01/15 01:08:41;;;;;;;;;;;7.70;99.90;;;;;;5092324;28;19920;-58
2022/01/15 01:11:22;;;;;;;;;;;7.70;99.90;;;;;;5092967;28;19931;-58
2022/01/15 01:22:36;;;;;;;;;;;7.70;99.90;;;;;;5074251;28;19966;-58
2022/01/15 01:24:33;;;;;;;;;;;7.60;99.90;;;;;;5072331;28;19915;-58
2022/01/15 01:27:07;;;;;;;;;;;7.60;99.90;;;;;;5072535;28;19909;-57
2022/01/15 01:32:05;;;;;;;;;;;7.60;99.90;;;;;;5078551;28;19916;-58
2022/01/15 01:34:33;;;;;;;;;;;7.60;99.90;;;;;;5092688;28;19939;-58
2022/01/15 01:39:43;;;;;;;;;;;7.60;99.90;;;;;;5092654;28;19912;-58
2022/01/15 01:42:25;;;;;;;;;;;7.60;99.90;;;;;;5085033;28;19936;-58
2022/01/15 01:45:16;;;;;;;;;;;7.60;99.90;;;;;;5071890;28;19912;-58
2022/01/15 01:47:42;;;;;;;;;;;7.60;99.90;;;;;;5072260;28;19917;-59
2022/01/15 01:50:08;;;;;;;;;;;7.60;99.90;;;;;;5076373;28;19954;-58
2022/01/15 01:52:33;;;;;;;;;;;7.60;99.90;;;;;;5086157;28;20298;-58
2022/01/15 01:54:59;;;;;;;;;;;7.60;99.90;;;;;;5096534;28;20298;-58
2022/01/15 01:57:24;;;;;;;;;;;7.60;99.90;;;;;;5095849;28;19908;-58
2022/01/15 01:59:50;;;;;;;;;;;7.60;99.90;;;;;;5096374;28;19908;-58
2022/01/15 02:02:15;;;;;;;;;;;7.60;99.90;;;;;;5088344;28;20355;-58
2022/01/15 02:04:41;;;;;;;;;;;7.60;99.90;;;;;;5075171;28;19931;-58
2022/01/15 02:07:06;;;;;;;;;;;7.60;99.90;;;;;;5075934;28;19909;-58
2022/01/15 02:09:32;;;;;;;;;;;7.60;99.90;;;;;;5075869;28;19920;-58
2022/01/15 02:11:57;;;;;;;;;;;7.60;99.90;;;;;;5080127;28;19966;-58
2022/01/15 02:14:29;;;;;;;;;;;7.60;99.90;;;;;;5096141;28;19923;-58
2022/01/15 02:16:55;;;;;;;;;;;7.60;99.90;;;;;;5096154;28;19912;-58
2022/01/15 02:19:21;;;;;;;;;;;7.60;99.90;;;;;;5095531;28;19914;-58
2022/01/15 02:24:16;;;;;;;;;;;7.60;99.90;;;;;;5096040;28;19908;-58
2022/01/15 02:26:41;;;;;;;;;;;7.60;99.90;;;;;;5095308;28;19957;-58
2022/01/15 02:29:08;;;;;;;;;;;7.60;99.90;;;;;;5095877;28;19971;-58
2022/01/15 02:31:34;;;;;;;;;;;7.60;99.90;;;;;;5094203;28;19916;-58
2022/01/15 02:34:01;;;;;;;;;;;7.60;99.90;;;;;;5075022;28;19919;-58
2022/01/15 02:36:28;;;;;;;;;;;7.60;99.90;;;;;;5075510;28;19913;-58
2022/01/15 02:38:53;;;;;;;;;;;7.60;99.90;;;;;;5075389;28;19913;-58
2022/01/15 02:41:30;;;;;;;;;;;7.60;99.90;;;;;;5074808;28;19929;-58
2022/01/15 02:44:00;;;;;;;;;;;7.60;99.90;;;;;;5075340;28;19912;-58
2022/01/15 02:48:56;;;;;;;;;;;7.60;99.90;;;;;;5089197;28;19924;-58
2022/01/15 02:51:23;;;;;;;;;;;7.60;99.90;;;;;;5075198;28;19982;-58
2022/01/15 02:53:57;;;;;;;;;;;7.60;99.90;;;;;;5074628;28;19966;-58
2022/01/15 02:56:39;;;;;;;;;;;7.50;99.90;;;;;;5075119;28;20011;-58
2022/01/15 02:59:05;;;;;;;;;;;7.50;99.90;;;;;;5075320;28;19916;-58
2022/01/15 03:01:31;;;;;;;;;;;7.50;99.90;;;;;;5074467;28;20011;-58
2022/01/15 03:03:57;;;;;;;;;;;7.50;99.90;;;;;;5074590;28;20002;-58
2022/01/15 03:06:23;;;;;;;;;;;7.50;99.90;;;;;;5085359;28;19916;-58
2022/01/15 03:08:49;;;;;;;;;;;7.50;99.90;;;;;;5094507;28;19922;-58
2022/01/15 03:11:15;;;;;;;;;;;7.50;99.90;;;;;;5095105;28;19997;-58
2022/01/15 03:13:41;;;;;;;;;;;7.50;99.90;;;;;;5094964;28;19959;-58
2022/01/15 03:16:07;;;;;;;;;;;7.50;99.90;;;;;;5085812;28;19919;-58
2022/01/15 03:18:33;;;;;;;;;;;7.50;99.90;;;;;;5074462;28;19923;-58
2022/01/15 03:20:59;;;;;;;;;;;7.50;99.90;;;;;;5074597;28;19909;-58
2022/01/15 03:23:24;;;;;;;;;;;7.50;99.90;;;;;;5074129;28;19908;-58
2022/01/15 03:25:50;;;;;;;;;;;7.50;99.90;;;;;;5082347;28;19912;-58
2022/01/15 03:28:15;;;;;;;;;;;7.40;99.90;;;;;;5094793;28;19912;-58
2022/01/15 03:30:40;;;;;;;;;;;7.40;99.90;;;;;;5094060;28;19998;-58
2022/01/15 03:33:06;;;;;;;;;;;7.40;99.90;;;;;;5094602;28;19912;-58
2022/01/15 03:35:32;;;;;;;;;;;7.40;99.90;;;;;;5089372;28;19924;-58
2022/01/15 03:37:58;;;;;;;;;;;7.40;99.90;;;;;;5073815;28;19966;-58
2022/01/15 03:40:24;;;;;;;;;;;7.40;99.90;;;;;;5074106;28;19909;-58
2022/01/15 03:42:49;;;;;;;;;;;7.40;99.90;;;;;;5073681;28;19920;-58
2022/01/15 03:45:15;;;;;;;;;;;7.40;99.90;;;;;;5076339;28;19962;-58
2022/01/15 03:47:41;;;;;;;;;;;7.40;99.90;;;;;;5094054;28;19908;-58
2022/01/15 03:50:06;;;;;;;;;;;7.40;99.90;;;;;;5093420;28;19917;-58
2022/01/15 03:52:32;;;;;;;;;;;7.40;99.90;;;;;;5094230;28;19919;-58
2022/01/15 03:54:57;;;;;;;;;;;7.40;99.90;;;;;;5091553;28;20579;-58
2022/01/15 03:57:23;;;;;;;;;;;7.40;99.90;;;;;;5073402;28;19954;-58
2022/01/15 03:59:49;;;;;;;;;;;7.40;99.90;;;;;;5073697;28;20300;-58
2022/01/15 04:02:14;;;;;;;;;;;7.40;99.90;;;;;;5073607;28;19952;-58
2022/01/15 04:04:40;;;;;;;;;;;7.40;99.90;;;;;;5072878;28;20014;-58
2022/01/15 04:07:05;;;;;;;;;;;7.40;99.90;;;;;;5074563;28;19919;-58
2022/01/15 04:09:31;;;;;;;;;;;7.40;99.90;;;;;;5073418;28;19923;-58
2022/01/15 04:11:56;;;;;;;;;;;7.40;99.90;;;;;;5072210;28;19908;-58
2022/01/15 04:14:21;;;;;;;;;;;7.40;99.90;;;;;;5073596;28;19913;-58
2022/01/15 04:16:47;;;;;;;;;;;7.40;99.90;;;;;;5073764;28;19923;-58
2022/01/15 04:19:12;;;;;;;;;;;7.40;99.90;;;;;;5072920;28;19963;-58
2022/01/15 04:21:38;;;;;;;;;;;7.40;99.90;;;;;;5073426;28;20275;-58
2022/01/15 04:24:03;;;;;;;;;;;7.40;99.90;;;;;;5073490;28;19909;-58
2022/01/15 04:26:30;;;;;;;;;;;7.40;99.90;;;;;;5089627;28;20006;-58
2022/01/15 04:29:02;;;;;;;;;;;7.40;99.90;;;;;;5093533;28;19920;-58
2022/01/15 04:31:27;;;;;;;;;;;7.40;99.90;;;;;;5093450;28;20347;-58
2022/01/15 04:33:53;;;;;;;;;;;7.40;99.90;;;;;;5093098;28;19969;-58
2022/01/15 04:36:18;;;;;;;;;;;7.40;99.90;;;;;;5075018;28;19958;-58
2022/01/15 04:38:45;;;;;;;;;;;7.40;99.90;;;;;;5073088;28;19909;-58
2022/01/15 04:41:10;;;;;;;;;;;7.30;99.90;;;;;;5072633;28;19915;-58
2022/01/15 04:43:36;;;;;;;;;;;7.30;99.90;;;;;;5073079;28;19908;-58
2022/01/15 04:46:01;;;;;;;;;;;7.30;99.90;;;;;;5088123;28;19952;-58
2022/01/15 04:48:27;;;;;;;;;;;7.30;99.90;;;;;;5092500;28;19975;-58
2022/01/15 04:50:53;;;;;;;;;;;7.30;99.90;;;;;;5093266;28;19915;-58
2022/01/15 04:53:18;;;;;;;;;;;7.30;99.90;;;;;;5092711;28;19950;-58
2022/01/15 04:55:44;;;;;;;;;;;7.30;99.90;;;;;;5077510;28;19920;-58
2022/01/15 04:58:09;;;;;;;;;;;7.30;99.90;;;;;;5072986;28;19943;-58
2022/01/15 05:00:35;;;;;;;;;;;7.30;99.90;;;;;;5072413;28;20331;-59
2022/01/15 05:03:01;;;;;;;;;;;7.20;99.90;;;;;;5072765;28;20023;-58
2022/01/15 05:05:27;;;;;;;;;;;7.30;99.90;;;;;;5084986;28;19935;-58
2022/01/15 05:07:53;;;;;;;;;;;7.30;99.90;;;;;;5092309;28;20010;-58
2022/01/15 05:10:21;;;;;;;;;;;7.30;99.90;;;;;;5092847;28;19919;-58
2022/01/15 05:12:48;;;;;;;;;;;7.30;99.90;;;;;;5092895;28;19908;-58
2022/01/15 05:15:15;;;;;;;;;;;7.30;99.90;;;;;;5078867;28;19919;-58
2022/01/15 05:17:41;;;;;;;;;;;7.30;99.90;;;;;;5072688;28;19915;-58
2022/01/15 05:20:07;;;;;;;;;;;7.30;99.90;;;;;;5072682;28;19909;-58
2022/01/15 05:22:34;;;;;;;;;;;7.30;99.90;;;;;;5071678;28;19913;-58
2022/01/15 05:24:59;;;;;;;;;;;7.30;99.90;;;;;;5082761;28;19962;-58
2022/01/15 05:27:25;;;;;;;;;;;7.30;99.90;;;;;;5092819;28;19947;-58
2022/01/15 05:29:51;;;;;;;;;;;7.30;99.90;;;;;;5092176;28;19920;-58
2022/01/15 05:32:19;;;;;;;;;;;7.30;99.90;;;;;;5092777;28;19952;-58
2022/01/15 05:34:44;;;;;;;;;;;7.30;99.90;;;;;;5081225;28;19948;-58
2022/01/15 05:37:10;;;;;;;;;;;7.30;99.90;;;;;;5071992;28;19936;-58
2022/01/15 05:39:36;;;;;;;;;;;7.30;99.90;;;;;;5072297;28;19912;-58
2022/01/15 05:42:01;;;;;;;;;;;7.30;99.90;;;;;;5072513;28;20264;-58
2022/01/15 05:44:27;;;;;;;;;;;7.30;99.90;;;;;;5080141;28;19977;-58
2022/01/15 05:46:53;;;;;;;;;;;7.30;99.90;;;;;;5092521;28;19912;-58
2022/01/15 05:49:18;;;;;;;;;;;7.30;99.90;;;;;;5092545;28;20389;-58
2022/01/15 05:51:44;;;;;;;;;;;7.30;99.90;;;;;;5091819;28;19909;-58
2022/01/15 05:54:10;;;;;;;;;;;7.30;99.90;;;;;;5086519;28;20329;-58
2022/01/15 05:56:37;;;;;;;;;;;7.30;99.90;;;;;;5071800;28;20003;-58
2022/01/15 05:59:03;;;;;;;;;;;7.20;99.90;;;;;;5072290;28;19915;-58
2022/01/15 06:01:28;;;;;;;;;;;7.20;99.90;;;;;;5072241;28;19908;-59
2022/01/15 06:03:54;;;;;;;;;;;7.20;99.90;;;;;;5074439;28;20285;-58
2022/01/15 06:06:19;;;;;;;;;;;7.20;99.90;;;;;;5092593;28;19978;-58
2022/01/15 06:08:45;;;;;;;;;;;7.10;99.90;;;;;;5091994;28;19985;-58
2022/01/15 06:11:11;;;;;;;;;;;7.10;99.90;;;;;;5091951;28;19920;-58
2022/01/15 06:13:37;;;;;;;;;;;7.10;99.90;;;;;;5092183;28;20475;-58
2022/01/15 06:16:03;;;;;;;;;;;7.10;99.90;;;;;;5073053;28;20066;-58
2022/01/15 06:18:29;;;;;;;;;;;7.00;99.90;;;;;;5071549;28;19909;-58
2022/01/15 06:20:54;;;;;;;;;;;7.10;99.90;;;;;;5072043;28;19915;-58
2022/01/15 06:23:20;;;;;;;;;;;7.00;99.90;;;;;;5072163;28;19916;-58
2022/01/15 06:25:45;;;;;;;;;;;7.10;99.90;;;;;;5087566;28;19919;-58
2022/01/15 06:28:11;;;;;;;;;;;7.00;99.90;;;;;;5092005;28;19919;-58
2022/01/15 06:30:36;;;;;;;;;;;7.00;99.90;;;;;;5092125;28;19999;-58
2022/01/15 06:33:01;;;;;;;;;;;7.10;99.90;;;;;;5091775;28;20429;-58
2022/01/15 06:35:27;;;;;;;;;;;7.00;99.90;;;;;;5079013;28;20322;-58
2022/01/15 06:37:53;;;;;;;;;;;7.00;99.90;;;;;;5075338;28;19935;-58
2022/01/15 06:40:18;;;;;;;;;;;7.10;99.90;;;;;;5074842;28;19915;-58
2022/01/15 06:42:44;;;;;;;;;;;7.10;99.90;;;;;;5075381;28;19943;-58
2022/01/15 06:45:10;;;;;;;;;;;7.10;99.90;;;;;;5088148;28;20263;-58
2022/01/15 06:47:36;;;;;;;;;;;7.00;99.90;;;;;;5095081;28;19975;-58
2022/01/15 06:50:05;;;;;;;;;;;7.00;99.90;;;;;;5095568;28;20354;-59
2022/01/15 06:52:34;;;;;;;;;;;7.00;99.90;;;;;;5095444;28;19962;-58
2022/01/15 06:54:59;;;;;;;;;;;7.00;99.90;;;;;;5080479;28;20278;-58
2022/01/15 06:57:24;;;;;;;;;;;7.00;99.90;;;;;;5074926;28;20351;-58
2022/01/15 06:59:50;;;;;;;;;;;7.00;99.90;;;;;;5074461;28;19963;-58
2022/01/15 07:02:15;;;;;;;;;;;7.00;99.90;;;;;;5075147;28;19955;-58
2022/01/15 07:04:41;;;;;;;;;;;7.00;99.90;;;;;;5075692;28;20310;-58
2022/01/15 07:07:06;;;;;;;;;;;7.00;99.90;;;;;;5074469;28;19931;-58
2022/01/15 07:09:32;;;;;;;;;;;7.00;99.90;;;;;;5074728;28;19962;-58
2022/01/15 07:11:58;;;;;;;;;;;7.00;99.90;;;;;;5074559;28;20298;-58
2022/01/15 07:14:23;;;;;;;;;;;7.00;99.90;;;;;;5080501;28;19913;-58
2022/01/15 07:16:49;;;;;;;;;;;7.00;99.90;;;;;;5094973;28;19912;-58
2022/01/15 07:19:14;;;;;;;;;;;7.00;99.90;;;;;;5095009;28;19915;-58
2022/01/15 07:21:40;;;;;;;;;;;6.90;99.90;;;;;;5094267;28;19908;-58
2022/01/15 07:24:06;;;;;;;;;;;6.90;99.90;;;;;;5090920;28;19912;-58
2022/01/15 07:26:31;;;;;;;;;;;6.90;99.90;;;;;;5074362;28;19955;-58
2022/01/15 07:28:58;;;;;;;;;;;6.90;99.90;;;;;;5073914;28;19923;-58
2022/01/15 07:31:23;;;;;;;;;;;6.90;99.90;;;;;;5074406;28;20413;-58
2022/01/15 07:33:49;;;;;;;;;;;6.90;99.90;;;;;;5075342;28;19912;-58
2022/01/15 07:36:14;;;;;;;;;;;6.90;99.90;;;;;;5093584;28;19916;-58
2022/01/15 07:38:40;;;;;;;;;;;7.00;99.90;;;;;;5093888;28;19909;-58
2022/01/15 07:41:10;;;;;;;;;;;7.00;99.90;;;;;;5094458;28;19938;-58
2022/01/15 07:43:36;;;;;;;;;;;7.00;99.90;;;;;;5093974;28;19998;-59
2022/01/15 07:46:01;;;;;;;;;;;6.90;99.90;;;;;;5093400;28;20054;-58
2022/01/15 07:48:27;;;;;;;;;;;7.00;99.90;;;;;;5094016;28;19923;-58
2022/01/15 07:50:53;;;;;;;;;;;7.00;99.90;;;;;;5092998;28;19912;-59
2022/01/15 07:53:18;;;;;;;;;;;6.90;99.90;;;;;;5093670;28;19908;-58
2022/01/15 07:55:43;;;;;;;;;;;7.00;99.90;;;;;;5077176;28;19909;-58
2022/01/15 07:58:10;;;;;;;;;;;7.00;99.90;;;;;;5072514;28;19935;-58
2022/01/15 08:00:35;;;;;;;;;;;7.00;99.90;;;;;;5073342;28;19908;-58
2022/01/15 08:03:01;;;;;;;;;;;6.90;99.90;;;;;;5072648;28;20011;-59
2022/01/15 08:05:27;;;;;;;;;;;6.90;99.90;;;;;;5074005;28;20416;-58
2022/01/15 08:07:52;;;;;;;;;;;6.90;99.90;;;;;;5085005;28;20365;-59
2022/01/15 08:10:18;;;;;;;;;;;6.90;99.90;;;;;;5111100;28;20425;-58
2022/01/15 08:12:48;;;;;;;;;;;6.90;99.90;;;;;;5083766;28;19927;-58
2022/01/15 08:15:15;;;;;;;;;;;6.90;99.90;;;;;;5087935;28;19912;-58
2022/01/15 08:17:40;;;;;;;;;;;6.90;99.90;;;;;;5112922;28;19915;-58
2022/01/15 08:20:06;;;;;;;;;;;6.90;99.90;;;;;;5103244;28;19909;-58
2022/01/15 08:22:31;;;;;;;;;;;6.90;99.90;;;;;;5096002;28;19911;-58
2022/01/15 08:24:57;;;;;;;;;;;6.90;99.90;;;;;;5090787;28;19919;-58
2022/01/15 08:27:22;;;;;;;;;;;7.00;99.90;;;;;;5113511;28;20056;-58
2022/01/15 08:29:48;;;;;;;;;;;7.00;99.90;;;;;;5106570;28;19916;-58
2022/01/15 08:32:13;;;;;;;;;;;7.00;99.90;;;;;;5092875;28;19919;-58
2022/01/15 08:34:39;;;;;;;;;;;7.00;99.90;;;;;;5093523;28;19908;-58
2022/01/15 08:37:05;;;;;;;;;;;7.00;99.90;;;;;;5093416;28;19998;-58
2022/01/15 08:39:30;;;;;;;;;;;7.10;99.90;;;;;;5092979;28;20328;-58
2022/01/15 08:41:56;;;;;;;;;;;7.00;99.90;;;;;;5099662;28;19911;-58
2022/01/15 08:44:24;;;;;;;;;;;7.10;99.90;;;;;;5106990;28;20355;-58
2022/01/15 08:46:51;;;;;;;;;;;7.00;99.90;;;;;;5072714;28;19908;-58
2022/01/15 08:49:17;;;;;;;;;;;7.10;99.90;;;;;;5073009;28;19917;-58
2022/01/15 08:51:42;;;;;;;;;;;7.10;99.90;;;;;;5073508;28;19912;-58
2022/01/15 08:54:08;;;;;;;;;;;7.10;99.90;;;;;;5088416;28;19908;-59
2022/01/15 08:56:33;;;;;;;;;;;7.10;99.90;;;;;;5092748;28;19991;-58
2022/01/15 08:58:59;;;;;;;;;;;7.10;99.90;;;;;;5074606;28;19909;-58
2022/01/15 09:01:24;;;;;;;;;;;7.10;99.90;;;;;;5092666;28;19915;-58
2022/01/15 09:03:49;;;;;;;;;;;7.10;99.90;;;;;;5074352;28;20363;-58
2022/01/15 09:06:15;;;;;;;;;;;7.10;99.90;;;;;;5088100;28;19973;-58
2022/01/15 09:08:42;;;;;;;;;;;7.10;99.90;;;;;;5090983;28;19977;-57
2022/01/15 09:11:07;;;;;;;;;;;7.10;99.90;;;;;;5091620;28;20366;-59
2022/01/15 09:13:33;;;;;;;;;;;7.10;99.90;;;;;;5086974;28;19920;-58
2022/01/15 09:15:58;;;;;;;;;;;7.10;99.90;;;;;;5088638;28;20402;-58
2022/01/15 09:18:24;;;;;;;;;;;7.10;99.90;;;;;;5091609;28;19908;-58
2022/01/15 09:20:50;;;;;;;;;;;7.10;99.90;;;;;;5092360;28;20251;-58
2022/01/15 09:23:16;;;;;;;;;;;7.10;99.90;;;;;;5091178;28;19963;-58
2022/01/15 09:25:42;;;;;;;;;;;7.10;99.90;;;;;;5091661;28;20005;-58
2022/01/15 09:30:52;;;;;;;;;;;7.10;99.90;;;;;;5090503;28;19915;-58
2022/01/15 09:33:17;;;;;;;;;;;7.10;99.90;;;;;;5094122;28;19908;-58
2022/01/15 09:35:43;;;;;;;;;;;7.10;99.90;;;;;;5091004;28;19919;-58
2022/01/15 09:38:08;;;;;;;;;;;7.10;99.90;;;;;;5091256;28;19908;-58
2022/01/15 09:40:34;;;;;;;;;;;7.10;99.90;;;;;;5091408;28;19963;-58
2022/01/15 09:43:00;;;;;;;;;;;7.10;99.90;;;;;;5065526;28;20356;-58
2022/01/15 09:45:26;;;;;;;;;;;7.10;99.90;;;;;;5091571;28;19948;-59
2022/01/15 09:47:54;;;;;;;;;;;7.10;99.90;;;;;;5090258;28;20523;-58
2022/01/15 09:50:20;;;;;;;;;;;7.10;99.90;;;;;;5068839;28;20257;-58
2022/01/15 09:52:45;;;;;;;;;;;7.10;99.90;;;;;;5091449;28;19915;-58
2022/01/15 09:55:12;;;;;;;;;;;7.00;99.90;;;;;;5090963;28;19912;-58
2022/01/15 09:57:38;;;;;;;;;;;6.90;99.90;;;;;;5089298;28;19916;-59
2022/01/15 10:00:07;;;;;;;;;;;6.90;99.90;;;;;;5091014;28;19918;-58
2022/01/15 10:02:32;;;;;;;;;;;6.90;99.90;;;;;;5091355;28;19908;-58
2022/01/15 10:04:58;;;;;;;;;;;6.90;99.90;;;;;;5084680;28;19924;-59
2022/01/15 10:07:27;;;;;;;;;;;6.90;99.90;;;;;;5080724;28;19958;-59
2022/01/15 10:09:53;;;;;;;;;;;6.90;99.90;;;;;;5079311;28;19924;-58
2022/01/15 10:12:31;;;;;;;;;;;6.90;99.90;;;;;;5081136;28;19971;-58
2022/01/15 10:15:00;;;;;;;;;;;6.80;99.90;;;;;;5083732;28;19960;-59
2022/01/15 10:17:27;;;;;;;;;;;6.70;99.90;;;;;;5089315;28;19908;-58
2022/01/15 10:19:53;;;;;;;;;;;6.80;99.90;;;;;;5075481;28;19913;-58
2022/01/15 10:22:23;;;;;;;;;;;6.80;99.90;;;;;;5075570;28;19967;-58
2022/01/15 10:24:50;;;;;;;;;;;6.80;99.90;;;;;;5075498;28;19909;-58
2022/01/15 10:27:20;;;;;;;;;;;6.90;99.90;;;;;;5075416;28;19908;-58
2022/01/15 10:29:50;;;;;;;;;;;6.90;99.90;;;;;;5057689;28;19920;-58
2022/01/15 10:32:15;;;;;;;;;;;6.90;99.90;;;;;;5054843;28;19948;-58
2022/01/15 10:34:42;;;;;;;;;;;6.90;99.90;;;;;;5055555;28;20371;-58
2022/01/15 10:37:21;;;;;;;;;;;6.90;99.90;;;;;;5055246;28;19908;-59
2022/01/15 10:39:57;;;;;;;;;;;6.90;99.90;;;;;;5055047;28;20271;-59
2022/01/15 10:42:23;;;;;;;;;;;6.90;99.90;;;;;;5067363;28;19912;-58
2022/01/15 10:44:50;;;;;;;;;;;7.00;99.90;;;;;;5066083;28;19909;-59
2022/01/15 10:47:16;;;;;;;;;;;7.00;99.90;;;;;;5054906;28;20430;-58
2022/01/15 10:49:43;;;;;;;;;;;7.00;99.90;;;;;;5063986;28;20372;-58
2022/01/15 10:52:17;;;;;;;;;;;7.00;99.90;;;;;;5061336;28;20284;-58
2022/01/15 10:54:55;;;;;;;;;;;7.00;99.90;;;;;;5075400;28;19913;-59
2022/01/15 10:57:24;;;;;;;;;;;7.00;99.90;;;;;;5065326;28;19912;-59
2022/01/15 11:00:02;;;;;;;;;;;7.10;99.90;;;;;;5062421;28;20008;-58
2022/01/15 11:02:28;;;;;;;;;;;7.10;99.90;;;;;;5078817;28;20385;-58
2022/01/15 11:04:54;;;;;;;;;;;7.10;99.90;;;;;;5088305;28;19924;-58
2022/01/15 11:07:20;;;;;;;;;;;7.10;99.90;;;;;;5098870;28;19987;-58
2022/01/15 11:09:47;;;;;;;;;;;7.20;99.90;;;;;;5103804;28;19924;-58
2022/01/15 11:12:13;;;;;;;;;;;7.20;99.90;;;;;;5108163;28;19965;-58
2022/01/15 11:14:38;;;;;;;;;;;7.10;99.90;;;;;;5114023;28;20309;-59
2022/01/15 11:17:05;;;;;;;;;;;7.10;99.90;;;;;;5101493;28;20007;-58
2022/01/15 11:19:31;;;;;;;;;;;7.10;99.90;;;;;;5088765;28;19915;-58
2022/01/15 11:22:00;;;;;;;;;;;7.10;99.90;;;;;;5108721;28;19912;-58
2022/01/15 11:24:26;;;;;;;;;;;7.10;99.90;;;;;;5115289;28;19908;-58
2022/01/15 11:26:55;;;;;;;;;;;7.10;99.90;;;;;;5115404;28;19908;-58
2022/01/15 11:29:21;;;;;;;;;;;7.10;99.90;;;;;;5114623;28;19927;-58
2022/01/15 11:31:46;;;;;;;;;;;7.10;99.90;;;;;;5115173;28;20338;-58
2022/01/15 11:34:14;;;;;;;;;;;7.10;99.90;;;;;;5104772;28;19912;-59
2022/01/15 11:36:40;;;;;;;;;;;7.10;99.90;;;;;;5085905;28;19912;-58
2022/01/15 11:39:07;;;;;;;;;;;7.00;99.90;;;;;;5102723;28;19916;-59
2022/01/15 11:41:32;;;;;;;;;;;6.90;99.90;;;;;;5074035;28;19917;-58
2022/01/15 11:43:58;;;;;;;;;;;6.90;99.90;;;;;;5074109;28;19915;-59
2022/01/15 11:46:23;;;;;;;;;;;6.90;99.90;;;;;;5085109;28;19912;-59
2022/01/15 11:48:49;;;;;;;;;;;6.90;99.90;;;;;;5093692;28;19920;-59
2022/01/15 11:51:14;;;;;;;;;;;6.90;99.90;;;;;;5098249;28;19918;-59
2022/01/15 11:53:43;;;;;;;;;;;6.90;99.90;;;;;;5114795;28;19943;-59
2022/01/15 11:56:15;;;;;;;;;;;6.90;99.90;;;;;;5113864;28;19908;-58
2022/01/15 11:58:40;;;;;;;;;;;6.80;99.90;;;;;;5114652;28;19998;-59
2022/01/15 12:01:06;;;;;;;;;;;6.80;99.90;;;;;;5114266;28;20385;-58
2022/01/15 12:03:38;;;;;;;;;;;6.80;99.90;;;;;;5108622;28;19912;-58
2022/01/15 12:06:03;;;;;;;;;;;6.80;99.90;;;;;;5093010;28;20007;-59
2022/01/15 12:08:33;;;;;;;;;;;6.70;99.90;;;;;;5092541;28;20381;-58
2022/01/15 12:10:59;;;;;;;;;;;6.60;99.90;;;;;;5092003;28;20381;-58
2022/01/15 12:13:26;;;;;;;;;;;6.70;99.90;;;;;;5089676;28;19912;-59
2022/01/15 12:16:10;;;;;;;;;;;6.80;99.90;;;;;;5092446;28;19909;-59
2022/01/15 12:18:46;;;;;;;;;;;6.80;99.90;;;;;;5093378;28;19971;-59
2022/01/15 12:21:11;;;;;;;;;;;6.80;99.90;;;;;;5093289;28;20282;-57
2022/01/15 12:23:37;;;;;;;;;;;6.70;99.90;;;;;;5092335;28;19913;-59
2022/01/15 12:26:08;;;;;;;;;;;6.70;99.90;;;;;;5085932;28;19913;-59
2022/01/15 12:28:33;;;;;;;;;;;6.70;99.90;;;;;;5103232;28;20393;-58
2022/01/15 12:30:59;;;;;;;;;;;6.60;99.90;;;;;;5083587;28;20398;-58
2022/01/15 12:33:24;;;;;;;;;;;6.60;99.90;;;;;;5081747;28;20371;-59
2022/01/15 12:35:52;;;;;;;;;;;6.60;99.90;;;;;;5083884;28;19935;-59
2022/01/15 12:38:25;;;;;;;;;;;6.50;99.90;;;;;;5072682;28;20350;-59
2022/01/15 12:41:05;;;;;;;;;;;6.50;99.90;;;;;;5068051;28;19923;-59
2022/01/15 12:43:34;;;;;;;;;;;6.60;99.90;;;;;;5071415;28;19921;-57
2022/01/15 12:46:01;;;;;;;;;;;6.60;99.90;;;;;;5074658;28;19943;-60
2022/01/15 12:48:30;;;;;;;;;;;6.70;99.90;;;;;;5074424;28;19928;-59
2022/01/15 12:50:57;;;;;;;;;;;6.70;99.90;;;;;;5085666;28;19912;-59
2022/01/15 12:53:25;;;;;;;;;;;6.70;99.90;;;;;;5080532;28;19916;-59
2022/01/15 12:55:51;;;;;;;;;;;6.70;99.90;;;;;;5071665;28;19913;-59
2022/01/15 12:58:18;;;;;;;;;;;6.70;99.90;;;;;;5077323;28;20427;-59
2022/01/15 13:00:44;;;;;;;;;;;6.70;99.90;;;;;;5079156;28;19916;-59
2022/01/15 13:03:14;;;;;;;;;;;6.70;99.90;;;;;;5072301;28;19912;-59
2022/01/15 13:05:44;;;;;;;;;;;6.70;99.90;;;;;;5065269;28;19920;-60
2022/01/15 13:08:17;;;;;;;;;;;6.80;99.90;;;;;;5072118;28;19908;-59
2022/01/15 13:10:51;;;;;;;;;;;6.80;99.90;;;;;;5066767;28;19917;-59
2022/01/15 13:13:25;;;;;;;;;;;6.80;99.90;;;;;;5062773;28;19928;-56
2022/01/15 13:15:57;;;;;;;;;;;6.80;99.90;;;;;;5064708;28;19912;-59
2022/01/15 13:18:23;;;;;;;;;;;6.80;99.90;;;;;;5058122;28;19928;-59
2022/01/15 13:20:50;;;;;;;;;;;6.80;99.90;;;;;;5062295;28;19920;-59
2022/01/15 13:23:16;;;;;;;;;;;6.80;99.90;;;;;;5050361;28;20371;-59
2022/01/15 13:25:45;;;;;;;;;;;6.80;99.90;;;;;;5058384;28;19924;-59
2022/01/15 13:28:10;;;;;;;;;;;6.80;99.90;;;;;;5058710;28;19913;-59
2022/01/15 13:30:36;;;;;;;;;;;6.90;99.90;;;;;;5053197;28;19928;-59
2022/01/15 13:33:03;;;;;;;;;;;6.80;99.90;;;;;;5051808;28;19919;-59
2022/01/15 13:35:35;;;;;;;;;;;6.80;99.90;;;;;;5055193;28;19912;-60
2022/01/15 13:38:04;;;;;;;;;;;6.80;99.90;;;;;;5072273;28;19908;-59
2022/01/15 13:40:34;;;;;;;;;;;6.80;99.90;;;;;;5072295;28;19923;-59
2022/01/15 13:43:00;;;;;;;;;;;6.80;99.90;;;;;;5072562;28;19939;-59
2022/01/15 13:45:28;;;;;;;;;;;6.80;99.90;;;;;;5076434;28;19944;-59
2022/01/15 13:48:10;;;;;;;;;;;6.80;99.90;;;;;;5074557;28;19920;-59
2022/01/15 13:53:30;;;;;;;;;;;6.70;99.90;;;;;;5075533;28;19919;-59
2022/01/15 13:56:09;;;;;;;;;;;6.80;99.90;;;;;;5075663;28;20405;-59
2022/01/15 13:58:35;;;;;;;;;;;6.70;99.90;;;;;;5076065;28;19909;-59
2022/01/15 14:01:20;;;;;;;;;;;6.60;99.90;;;;;;5075721;28;20046;-59
2022/01/15 14:03:46;;;;;;;;;;;6.50;99.90;;;;;;5076158;28;20362;-59
2022/01/15 14:06:11;;;;;;;;;;;6.50;99.90;;;;;;5096042;28;19912;-58
2022/01/15 14:08:37;;;;;;;;;;;6.50;99.90;;;;;;5096182;28;19927;-59
2022/01/15 14:11:13;;;;;;;;;;;6.50;99.90;;;;;;5088237;28;19919;-59
2022/01/15 14:13:38;;;;;;;;;;;6.50;99.90;;;;;;5090274;28;20302;-59
2022/01/15 14:16:23;;;;;;;;;;;6.40;99.90;;;;;;5098244;28;19916;-59
2022/01/15 14:18:54;;;;;;;;;;;6.40;99.90;;;;;;5100144;28;20397;-59
2022/01/15 14:21:40;;;;;;;;;;;6.50;99.90;;;;;;5095980;28;19912;-59
2022/01/15 14:24:15;;;;;;;;;;;6.40;99.90;;;;;;5095502;28;19908;-59
2022/01/15 14:26:48;;;;;;;;;;;6.40;99.90;;;;;;5095841;28;19995;-59
2022/01/15 14:29:13;;;;;;;;;;;6.40;99.90;;;;;;5095760;28;19916;-60
2022/01/15 14:31:39;;;;;;;;;;;6.40;99.90;;;;;;5078929;28;19919;-59
2022/01/15 14:34:05;;;;;;;;;;;6.40;99.90;;;;;;5091648;28;20003;-59
2022/01/15 14:36:31;;;;;;;;;;;6.40;99.90;;;;;;5097704;28;20335;-59
2022/01/15 14:39:03;;;;;;;;;;;6.40;99.90;;;;;;5115403;28;19908;-59
2022/01/15 14:41:29;;;;;;;;;;;6.30;99.90;;;;;;5097190;28;19908;-59
2022/01/15 14:43:54;;;;;;;;;;;6.30;99.90;;;;;;5095221;28;20042;-59
2022/01/15 14:46:20;;;;;;;;;;;6.30;99.90;;;;;;5095487;28;19908;-59
2022/01/15 14:48:45;;;;;;;;;;;6.30;99.90;;;;;;5095355;28;20282;-59
2022/01/15 14:51:13;;;;;;;;;;;6.30;99.90;;;;;;5094933;28;20004;-59
2022/01/15 14:53:39;;;;;;;;;;;6.20;99.90;;;;;;5113911;28;19914;-59